createdAt,value
2017-05-30T00:00:32.043Z,23.70
2017-05-30T00:02:59.715Z,23.60
2017-05-30T00:05:27.796Z,23.40
2017-05-30T00:07:55.704Z,23.30
2017-05-30T00:10:28.364Z,23.40
2017-05-30T00:12:55.327Z,23.40
2017-05-30T00:15:23.560Z,23.30
2017-05-30T00:17:51.250Z,23.10
2017-05-30T00:20:18.178Z,23.00
2017-05-30T00:22:48.134Z,23.00
2017-05-30T00:25:16.581Z,23.00
2017-05-30T00:27:43.556Z,22.90
2017-05-30T00:30:13.191Z,22.90
2017-05-30T00:32:40.594Z,22.80
2017-05-30T00:35:07.495Z,22.70
2017-05-30T00:37:36.959Z,22.60
2017-05-30T00:40:06.709Z,22.70
2017-05-30T00:42:33.653Z,22.70
2017-05-30T00:45:00.636Z,22.60
2017-05-30T00:47:27.865Z,22.70
2017-05-30T00:49:57.172Z,22.70
2017-05-30T00:52:24.124Z,22.70
2017-05-30T00:54:53.406Z,22.70
2017-05-30T00:57:20.306Z,22.70
2017-05-30T00:59:50.596Z,22.80
2017-05-30T01:02:17.763Z,22.80
2017-05-30T01:04:44.732Z,22.90
2017-05-30T01:07:11.655Z,22.90
2017-05-30T01:09:38.583Z,22.90
2017-05-30T01:12:07.314Z,23.00
2017-05-30T01:14:34.870Z,22.90
2017-05-30T01:17:01.763Z,22.90
2017-05-30T01:19:28.732Z,22.90
2017-05-30T01:21:55.771Z,22.90
2017-05-30T01:24:23.485Z,22.90
2017-05-30T01:26:50.423Z,22.80
2017-05-30T01:29:17.672Z,22.70
2017-05-30T01:31:45.837Z,22.60
2017-05-30T01:34:12.976Z,22.50
2017-05-30T01:36:39.903Z,22.30
2017-05-30T01:39:06.871Z,22.30
2017-05-30T01:41:40.216Z,22.30
2017-05-30T01:44:09.054Z,22.40
2017-05-30T01:46:38.155Z,22.50
2017-05-30T01:49:05.260Z,22.50
2017-05-30T01:51:35.575Z,22.60
2017-05-30T01:54:04.699Z,22.50
2017-05-30T01:56:33.450Z,22.40
2017-05-30T01:59:00.407Z,22.40
2017-05-30T02:01:28.641Z,22.50
2017-05-30T02:03:55.582Z,22.40
2017-05-30T02:06:24.881Z,22.30
2017-05-30T02:08:55.256Z,22.40
2017-05-30T02:11:22.204Z,22.50
2017-05-30T02:13:50.143Z,22.40
2017-05-30T02:16:17.200Z,22.20
2017-05-30T02:18:44.152Z,22.10
2017-05-30T02:21:12.942Z,22.10
2017-05-30T02:33:29.912Z,21.80
2017-05-30T02:35:58.795Z,22.00
2017-05-30T02:38:27.151Z,22.10
2017-05-30T02:40:54.100Z,22.00
2017-05-30T02:43:22.858Z,21.80
2017-05-30T02:45:50.689Z,21.70
2017-05-30T02:48:17.641Z,21.80
2017-05-30T02:50:44.597Z,21.90
2017-05-30T02:53:16.042Z,21.90
2017-05-30T02:55:43.927Z,21.90
2017-05-30T02:58:11.844Z,21.70
2017-05-30T03:00:38.828Z,21.80
2017-05-30T03:03:08.292Z,22.00
2017-05-30T03:05:35.269Z,22.00
2017-05-30T03:08:02.851Z,21.90
2017-05-30T03:10:29.793Z,21.80
2017-05-30T03:12:56.719Z,21.90
2017-05-30T03:15:23.639Z,22.00
2017-05-30T03:17:52.459Z,22.00
2017-05-30T03:30:09.496Z,21.70
2017-05-30T03:32:38.792Z,21.80
2017-05-30T03:35:05.755Z,21.80
2017-05-30T03:37:32.744Z,21.80
2017-05-30T03:39:59.643Z,21.80
2017-05-30T03:42:29.503Z,21.80
2017-05-30T03:54:47.037Z,21.60
2017-05-30T03:57:14.064Z,21.70
2017-05-30T03:59:42.751Z,21.80
2017-05-30T04:02:09.743Z,21.80
2017-05-30T04:04:37.347Z,21.70
2017-05-30T04:07:04.264Z,21.80
2017-05-30T04:09:32.169Z,21.80
2017-05-30T04:12:00.099Z,21.90
2017-05-30T04:14:27.005Z,22.00
2017-05-30T04:16:53.996Z,22.00
2017-05-30T04:19:20.906Z,22.10
2017-05-30T04:21:48.194Z,22.10
2017-05-30T04:24:15.108Z,22.10
2017-05-30T04:26:42.473Z,22.00
2017-05-30T04:29:12.141Z,22.00
2017-05-30T04:31:40.366Z,22.10
2017-05-30T04:34:07.280Z,22.10
2017-05-30T04:36:34.177Z,22.10
2017-05-30T04:39:03.445Z,22.30
2017-05-30T04:41:30.387Z,22.50
2017-05-30T04:43:57.791Z,22.60
2017-05-30T04:46:25.715Z,22.70
2017-05-30T04:48:54.285Z,22.90
2017-05-30T04:51:24.151Z,23.00
2017-05-30T04:53:51.144Z,23.20
2017-05-30T04:56:18.038Z,23.30
2017-05-30T04:58:44.997Z,23.40
2017-05-30T05:01:12.036Z,23.40
2017-05-30T05:03:38.960Z,23.30
2017-05-30T05:06:08.025Z,23.30
2017-05-30T05:08:36.010Z,23.20
2017-05-30T05:11:04.683Z,23.20
2017-05-30T05:13:31.734Z,23.20
2017-05-30T05:15:58.656Z,23.60
2017-05-30T05:18:25.827Z,23.80
2017-05-30T05:20:52.784Z,23.80
2017-05-30T05:23:20.582Z,23.70
2017-05-30T05:25:48.658Z,23.50
2017-05-30T05:28:17.125Z,23.40
2017-05-30T05:30:46.932Z,23.30
2017-05-30T05:33:15.606Z,23.30
2017-05-30T05:35:44.129Z,23.20
2017-05-30T05:38:11.243Z,23.20
2017-05-30T05:40:38.556Z,23.30
2017-05-30T05:43:07.373Z,23.40
2017-05-30T05:45:35.448Z,23.40
2017-05-30T05:48:02.372Z,23.40
2017-05-30T05:50:45.042Z,23.70
2017-05-30T05:53:13.613Z,23.80
2017-05-30T05:55:41.978Z,24.20
2017-05-30T05:58:10.011Z,24.40
2017-05-30T06:00:39.507Z,24.40
2017-05-30T06:03:07.909Z,24.50
2017-05-30T06:05:34.855Z,24.50
2017-05-30T06:08:04.883Z,24.60
2017-05-30T06:10:33.326Z,24.50
2017-05-30T06:13:04.220Z,24.50
2017-05-30T06:15:31.148Z,24.60
2017-05-30T06:17:58.250Z,24.80
2017-05-30T06:20:26.004Z,24.80
2017-05-30T06:22:55.472Z,25.00
2017-05-30T06:25:22.407Z,25.20
2017-05-30T06:27:53.207Z,25.60
2017-05-30T06:30:21.804Z,26.20
2017-05-30T06:32:48.757Z,27.30
2017-05-30T06:35:16.633Z,27.90
2017-05-30T06:37:46.033Z,28.30
2017-05-30T06:40:14.241Z,28.60
2017-05-30T06:42:41.340Z,28.50
2017-05-30T06:45:08.285Z,28.70
2017-05-30T06:47:35.350Z,28.80
2017-05-30T06:50:04.883Z,28.90
2017-05-30T06:52:32.487Z,29.00
2017-05-30T06:55:00.429Z,29.10
2017-05-30T06:57:32.944Z,29.40
2017-05-30T07:00:00.663Z,29.60
2017-05-30T07:02:29.206Z,30.10
2017-05-30T07:04:57.687Z,30.30
2017-05-30T07:07:26.112Z,30.60
2017-05-30T07:09:54.124Z,30.90
2017-05-30T07:12:24.417Z,30.80
2017-05-30T07:14:51.396Z,30.70
2017-05-30T07:17:19.287Z,30.80
2017-05-30T07:19:49.426Z,31.20
2017-05-30T07:22:16.435Z,31.40
2017-05-30T07:24:44.279Z,31.90
2017-05-30T07:27:15.059Z,32.20
2017-05-30T07:39:28.803Z,33.00
2017-05-30T07:41:57.882Z,33.00
2017-05-30T07:44:25.671Z,33.10
2017-05-30T07:56:38.451Z,32.80
2017-05-30T07:59:10.247Z,32.20
2017-05-30T08:01:41.390Z,32.20
2017-05-30T08:04:08.345Z,31.90
2017-05-30T08:06:35.359Z,31.80
2017-05-30T08:09:03.941Z,31.30
2017-05-30T08:11:33.696Z,30.60
2017-05-30T08:23:46.647Z,29.00
2017-05-30T08:26:14.301Z,28.80
2017-05-30T08:28:41.540Z,28.70
2017-05-30T08:31:10.372Z,28.60
2017-05-30T08:33:39.124Z,28.50
2017-05-30T08:36:07.071Z,28.40
2017-05-30T08:38:34.040Z,28.60
2017-05-30T08:50:47.567Z,29.50
2017-05-30T08:53:14.543Z,29.50
2017-05-30T08:55:45.463Z,30.20
2017-05-30T08:58:13.120Z,30.40
2017-05-30T09:10:25.337Z,32.00
2017-05-30T09:12:53.143Z,32.10
2017-05-30T09:15:20.132Z,32.60
2017-05-30T09:17:51.198Z,32.90
2017-05-30T09:20:21.263Z,33.20
2017-05-30T09:22:49.654Z,33.90
2017-05-30T09:25:17.251Z,34.20
2017-05-30T09:27:46.291Z,34.50
2017-05-30T09:30:14.354Z,34.80
2017-05-30T09:32:42.936Z,34.50
2017-05-30T09:35:13.694Z,34.70
2017-05-30T09:47:26.060Z,36.50
2017-05-30T09:49:54.194Z,37.40
2017-05-30T09:52:22.076Z,37.80
2017-05-30T09:54:50.370Z,38.50
2017-05-30T09:57:18.535Z,38.70
2017-05-30T09:59:46.354Z,39.00
2017-05-30T10:12:00.651Z,39.70
2017-05-30T10:14:29.583Z,39.50
2017-05-30T10:16:57.359Z,40.00
2017-05-30T10:19:27.130Z,39.80
2017-05-30T10:21:55.930Z,40.00
2017-05-30T10:24:22.847Z,40.70
2017-05-30T10:26:50.926Z,40.70
2017-05-30T10:29:19.647Z,39.90
2017-05-30T10:31:46.690Z,39.70
2017-05-30T10:43:59.842Z,36.20
2017-05-30T10:46:26.783Z,34.90
2017-05-30T10:51:46.656Z,32.40
2017-05-30T10:54:15.526Z,30.90
2017-05-30T10:56:44.011Z,28.80
2017-05-30T10:59:10.962Z,26.90
2017-05-30T11:01:42.049Z,25.90
2017-05-30T11:04:09.652Z,25.10
2017-05-30T11:06:39.171Z,24.70
2017-05-30T11:09:06.317Z,24.50
2017-05-30T11:11:37.193Z,24.70
2017-05-30T11:14:05.509Z,24.50
2017-05-30T11:16:32.869Z,24.80
2017-05-30T11:19:00.581Z,25.10
2017-05-30T11:21:30.590Z,25.20
2017-05-30T11:23:58.729Z,25.50
2017-05-30T11:26:28.040Z,26.10
2017-05-30T11:28:55.952Z,28.30
2017-05-30T11:31:25.728Z,29.80
2017-05-30T11:33:54.038Z,30.70
2017-05-30T11:36:26.974Z,30.30
2017-05-30T11:38:54.522Z,29.30
2017-05-30T11:41:21.644Z,28.10
2017-05-30T11:43:50.794Z,27.00
2017-05-30T11:46:21.630Z,26.20
2017-05-30T11:48:50.423Z,26.00
2017-05-30T11:51:19.562Z,25.80
2017-05-30T11:53:46.940Z,25.70
2017-05-30T11:56:14.818Z,25.60
2017-05-30T11:58:42.227Z,25.30
2017-05-30T12:01:09.433Z,25.10
2017-05-30T12:03:37.922Z,24.90
2017-05-30T12:06:07.124Z,24.90
2017-05-30T12:08:36.581Z,25.20
2017-05-30T12:11:05.581Z,25.30
2017-05-30T12:13:34.365Z,25.20
2017-05-30T12:16:02.383Z,25.20
2017-05-30T12:18:33.268Z,24.90
2017-05-30T12:21:02.163Z,24.90
2017-05-30T12:23:30.052Z,25.00
2017-05-30T12:26:00.432Z,25.20
2017-05-30T12:28:27.508Z,25.30
2017-05-30T12:30:54.651Z,25.50
2017-05-30T12:33:23.804Z,25.60
2017-05-30T12:35:51.395Z,25.70
2017-05-30T12:38:19.320Z,25.70
2017-05-30T12:40:50.898Z,25.70
2017-05-30T12:43:18.793Z,25.90
2017-05-30T12:45:45.698Z,25.90
2017-05-30T12:48:16.932Z,26.10
2017-05-30T12:50:44.935Z,27.20
2017-05-30T12:53:13.166Z,28.00
2017-05-30T12:55:41.495Z,28.20
2017-05-30T12:58:08.448Z,28.00
2017-05-30T13:00:37.993Z,27.80
2017-05-30T13:03:06.834Z,27.80
2017-05-30T13:05:38.841Z,27.90
2017-05-30T13:08:05.856Z,27.70
2017-05-30T13:10:32.839Z,27.70
2017-05-30T13:13:01.075Z,28.10
2017-05-30T13:15:28.170Z,28.60
2017-05-30T13:17:55.353Z,29.00
2017-05-30T13:20:22.616Z,29.30
2017-05-30T13:22:52.376Z,29.40
2017-05-30T13:25:24.650Z,29.40
2017-05-30T13:27:55.275Z,29.60
2017-05-30T13:30:23.821Z,29.60
2017-05-30T13:32:53.963Z,29.00
2017-05-30T13:35:21.657Z,28.20
2017-05-30T13:37:49.249Z,27.50
2017-05-30T13:40:16.619Z,27.20
2017-05-30T13:42:44.749Z,27.00
2017-05-30T13:45:11.686Z,26.80
2017-05-30T13:47:38.675Z,26.60
2017-05-30T13:59:56.194Z,26.40
2017-05-30T14:02:23.243Z,26.20
2017-05-30T14:04:53.040Z,26.00
2017-05-30T14:07:20.080Z,25.90
2017-05-30T14:09:47.051Z,25.80
2017-05-30T14:12:13.970Z,26.30
2017-05-30T14:14:41.497Z,27.20
2017-05-30T14:17:11.024Z,27.60
2017-05-30T14:19:38.987Z,27.70
2017-05-30T14:22:07.864Z,28.00
2017-05-30T14:24:35.739Z,28.10
2017-05-30T14:27:04.872Z,28.10
2017-05-30T14:29:34.144Z,28.20
2017-05-30T14:32:03.295Z,28.00
2017-05-30T14:34:32.084Z,27.90
2017-05-30T14:37:01.692Z,28.00
2017-05-30T14:49:14.442Z,27.40
2017-05-30T14:51:44.408Z,27.20
2017-05-30T14:54:11.640Z,27.20
2017-05-30T14:56:38.805Z,27.10
2017-05-30T14:59:07.442Z,27.10
2017-05-30T15:01:35.983Z,27.00
2017-05-30T15:13:57.031Z,26.80
2017-05-30T15:16:27.020Z,27.00
2017-05-30T15:18:56.409Z,27.00
2017-05-30T15:21:25.376Z,27.00
2017-05-30T15:23:57.375Z,27.00
2017-05-30T15:26:24.738Z,27.00
2017-05-30T15:28:51.686Z,27.00
2017-05-30T15:31:20.615Z,27.00
2017-05-30T15:33:47.640Z,27.00
2017-05-30T15:36:16.750Z,27.10
2017-05-30T15:38:45.655Z,27.10
2017-05-30T15:41:12.868Z,27.00
2017-05-30T15:43:40.787Z,26.90
2017-05-30T15:46:09.283Z,26.80
2017-05-30T15:48:37.586Z,26.70
2017-05-30T15:51:06.427Z,26.80
2017-05-30T15:53:33.428Z,26.50
2017-05-30T15:56:01.228Z,26.60
2017-05-30T15:58:28.158Z,26.70
2017-05-30T16:00:57.912Z,26.80
2017-05-30T16:03:25.943Z,27.00
2017-05-30T16:05:52.917Z,27.00
2017-05-30T16:08:20.695Z,27.10
2017-05-30T16:10:50.120Z,27.10
2017-05-30T16:13:17.072Z,27.10
2017-05-30T16:15:45.258Z,27.10
2017-05-30T16:18:14.657Z,27.00
2017-05-30T16:20:41.683Z,27.00
2017-05-30T16:23:08.725Z,27.00
2017-05-30T16:25:39.447Z,27.00
2017-05-30T16:28:08.525Z,26.90
2017-05-30T16:30:38.120Z,26.80
2017-05-30T16:33:06.819Z,26.70
2017-05-30T16:35:39.594Z,26.70
2017-05-30T16:38:08.135Z,26.70
2017-05-30T16:40:35.841Z,26.80
2017-05-30T16:43:03.752Z,26.90
2017-05-30T16:45:32.145Z,27.00
2017-05-30T16:48:01.492Z,27.00
2017-05-30T16:50:33.656Z,27.00
2017-05-30T16:53:02.595Z,26.80
2017-05-30T16:55:36.024Z,26.70
2017-05-30T16:58:07.112Z,26.60
2017-05-30T17:00:36.980Z,26.50
2017-05-30T17:03:04.678Z,26.40
2017-05-30T17:05:33.470Z,26.40
2017-05-30T17:08:00.547Z,26.40
2017-05-30T17:10:29.303Z,26.40
2017-05-30T17:12:58.054Z,26.40
2017-05-30T17:15:27.815Z,26.40
2017-05-30T17:17:55.599Z,26.40
2017-05-30T17:20:23.605Z,26.30
2017-05-30T17:22:55.463Z,26.30
2017-05-30T17:25:25.132Z,26.30
2017-05-30T17:27:53.189Z,26.20
2017-05-30T17:30:21.219Z,26.20
2017-05-30T17:32:48.484Z,26.10
2017-05-30T17:45:00.545Z,25.90
2017-05-30T17:47:27.577Z,25.90
2017-05-30T17:49:56.029Z,25.90
2017-05-30T17:52:26.023Z,25.90
2017-05-30T17:54:53.194Z,25.80
2017-05-30T17:57:20.992Z,25.80
2017-05-30T17:59:49.482Z,25.70
2017-05-30T18:02:17.733Z,25.60
2017-05-30T18:04:47.448Z,25.70
2017-05-30T18:07:14.781Z,25.60
2017-05-30T18:09:43.449Z,25.60
2017-05-30T18:12:11.426Z,25.60
2017-05-30T18:14:41.034Z,25.50
2017-05-30T18:17:10.512Z,25.60
2017-05-30T18:19:39.173Z,25.50
2017-05-30T18:22:07.043Z,25.50
2017-05-30T18:24:34.881Z,25.40
2017-05-30T18:27:04.959Z,25.40
2017-05-30T18:29:33.796Z,25.40
2017-05-30T18:32:03.865Z,25.40
2017-05-30T18:34:32.339Z,25.40
2017-05-30T18:37:02.640Z,25.40
2017-05-30T18:39:29.634Z,25.40
2017-05-30T18:42:00.504Z,25.30
2017-05-30T18:44:28.076Z,25.30
2017-05-30T18:46:56.771Z,25.20
2017-05-30T18:59:10.044Z,24.90
2017-05-30T19:01:37.813Z,24.80
2017-05-30T19:04:05.232Z,24.80
2017-05-30T19:06:33.251Z,24.80
2017-05-30T19:09:01.197Z,24.80
2017-05-30T19:11:29.201Z,24.70
2017-05-30T19:13:57.131Z,24.70
2017-05-30T19:16:24.659Z,24.60
2017-05-30T19:18:51.981Z,24.60
2017-05-30T19:21:20.534Z,24.60
2017-05-30T19:23:48.055Z,24.60
2017-05-30T19:26:15.364Z,24.60
2017-05-30T19:28:43.506Z,24.60
2017-05-30T19:31:11.092Z,24.60
2017-05-30T19:33:38.311Z,24.70
2017-05-30T19:36:06.009Z,24.70
2017-05-30T19:38:34.341Z,24.70
2017-05-30T19:41:01.691Z,24.70
2017-05-30T19:43:30.131Z,24.70
2017-05-30T19:45:57.481Z,24.70
2017-05-30T19:48:26.246Z,24.70
2017-05-30T19:50:53.860Z,24.70
2017-05-30T19:56:19.898Z,24.50
2017-05-30T19:58:48.374Z,24.40
2017-05-30T20:01:28.106Z,24.40
2017-05-30T20:03:57.427Z,24.40
2017-05-30T20:06:26.507Z,24.30
2017-05-30T20:08:54.222Z,24.30
2017-05-30T20:11:33.861Z,24.20
2017-05-30T20:14:01.134Z,24.20
2017-05-30T20:19:12.230Z,24.00
2017-05-30T20:21:39.649Z,24.00
2017-05-30T20:24:18.012Z,24.00
2017-05-30T20:26:47.051Z,24.00
2017-05-30T20:29:15.812Z,23.90
2017-05-30T20:31:42.830Z,23.90
2017-05-30T20:34:10.613Z,23.90
2017-05-30T20:36:39.960Z,23.90
2017-05-30T20:39:09.009Z,23.90
2017-05-30T20:41:36.313Z,23.80
2017-05-30T20:44:04.213Z,23.90
2017-05-30T20:46:34.981Z,23.90
2017-05-30T20:49:02.312Z,23.90
2017-05-30T20:51:30.261Z,23.90
2017-05-30T20:53:57.678Z,23.90
2017-05-30T20:56:25.587Z,23.90
2017-05-30T20:58:55.727Z,23.90
2017-05-30T21:01:22.789Z,23.90
2017-05-30T21:03:54.531Z,23.90
2017-05-30T21:06:22.616Z,23.90
2017-05-30T21:08:51.228Z,23.80
2017-05-30T21:11:24.135Z,23.80
2017-05-30T21:13:51.157Z,23.50
2017-05-30T21:16:18.723Z,23.70
2017-05-30T21:18:45.746Z,23.70
2017-05-30T21:21:14.499Z,23.70
2017-05-30T21:23:45.048Z,23.60
2017-05-30T21:26:13.717Z,23.60
2017-05-30T21:28:41.601Z,23.60
2017-05-30T21:31:08.592Z,23.60
2017-05-30T21:33:36.529Z,23.50
2017-05-30T21:36:06.272Z,23.50
2017-05-30T21:38:33.220Z,23.50
2017-05-30T21:41:01.353Z,23.50
2017-05-30T21:43:30.088Z,23.40
2017-05-30T21:45:57.080Z,23.40
2017-05-30T21:48:24.208Z,23.30
2017-05-30T21:50:52.084Z,23.30
2017-05-30T21:53:20.741Z,23.30
2017-05-30T21:55:48.099Z,23.30
2017-05-30T21:58:16.811Z,23.20
2017-05-30T22:00:44.469Z,23.20
2017-05-30T22:03:12.251Z,23.10
2017-05-30T22:05:39.251Z,23.10
2017-05-30T22:08:06.210Z,23.00
2017-05-30T22:10:34.072Z,23.00
2017-05-30T22:13:01.088Z,22.80
2017-05-30T22:15:44.425Z,22.50
2017-05-30T22:18:11.357Z,22.30
2017-05-30T22:20:39.989Z,22.30
2017-05-30T22:23:07.768Z,22.20
2017-05-30T22:25:36.641Z,22.10
2017-05-30T22:28:06.709Z,22.20
2017-05-30T22:30:35.656Z,22.20
2017-05-30T22:33:02.646Z,22.30
2017-05-30T22:35:31.267Z,22.30
2017-05-30T22:37:58.787Z,22.30
2017-05-30T22:40:27.580Z,22.20
2017-05-30T22:42:54.552Z,22.20
2017-05-30T22:45:22.939Z,22.30
2017-05-30T22:47:49.897Z,22.30
2017-05-30T23:00:01.936Z,22.20
2017-05-30T23:02:29.953Z,22.10
2017-05-30T23:04:58.942Z,21.90
2017-05-30T23:07:25.993Z,21.80
2017-05-30T23:09:52.946Z,21.80
2017-05-30T23:12:21.127Z,21.60
2017-05-30T23:14:48.087Z,21.40
2017-05-30T23:17:15.868Z,21.10
2017-05-30T23:19:44.599Z,20.90
2017-05-30T23:22:13.128Z,20.90
2017-05-30T23:24:40.868Z,21.00
2017-05-30T23:27:09.237Z,21.00
2017-05-30T23:29:38.743Z,20.80
2017-05-30T23:32:07.368Z,21.00
2017-05-30T23:34:34.399Z,21.20
2017-05-30T23:37:01.916Z,21.00
2017-05-30T23:39:28.967Z,21.00
2017-05-30T23:41:55.927Z,21.20
2017-05-30T23:44:26.055Z,21.40
2017-05-30T23:46:52.968Z,21.40
2017-05-30T23:49:22.243Z,21.40
2017-05-30T23:51:50.107Z,21.40
2017-05-30T23:54:17.022Z,21.30
2017-05-30T23:56:43.917Z,21.30
2017-05-30T23:59:10.943Z,21.40
